createdAt,value
2022-12-29T00:01:32.868Z,38.50
2022-12-29T00:04:35.236Z,42.50
2022-12-29T00:07:37.356Z,34.80
2022-12-29T00:10:39.379Z,38.72
2022-12-29T00:14:00.244Z,29.48
2022-12-29T00:17:02.291Z,36.33
2022-12-29T00:20:23.432Z,33.08
2022-12-29T00:23:44.420Z,32.33
2022-12-29T00:27:05.565Z,30.85
2022-12-29T00:30:29.689Z,30.85
2022-12-29T00:33:51.311Z,34.97
2022-12-29T00:36:53.822Z,27.42
2022-12-29T00:40:14.407Z,35.45
2022-12-29T00:43:34.923Z,33.38
2022-12-29T00:46:38.787Z,38.45
2022-12-29T00:49:40.862Z,33.28
2022-12-29T00:52:42.837Z,31.25
2022-12-29T00:55:45.315Z,35.07
2022-12-29T00:58:47.282Z,33.92
2022-12-29T01:01:49.448Z,32.28
2022-12-29T01:04:51.540Z,34.07
2022-12-29T01:07:53.537Z,33.45
2022-12-29T01:11:02.293Z,32.03
2022-12-29T01:14:04.588Z,30.45
2022-12-29T01:17:07.046Z,40.95
2022-12-29T01:20:09.786Z,36.15
2022-12-29T01:23:11.872Z,31.77
2022-12-29T01:26:14.852Z,30.57
2022-12-29T01:29:17.222Z,29.50
2022-12-29T01:32:21.321Z,32.05
2022-12-29T01:35:23.330Z,32.63
2022-12-29T01:38:25.535Z,38.55
2022-12-29T01:41:27.964Z,40.20
2022-12-29T01:45:02.285Z,48.25
2022-12-29T01:48:06.176Z,42.70
2022-12-29T01:51:08.304Z,50.13
2022-12-29T01:54:12.989Z,36.88
2022-12-29T01:57:17.879Z,44.17
2022-12-29T02:00:20.729Z,36.05
2022-12-29T02:03:24.517Z,42.33
2022-12-29T02:06:29.220Z,44.73
2022-12-29T02:09:31.559Z,42.10
2022-12-29T02:12:33.570Z,49.65
2022-12-29T02:15:53.637Z,35.72
2022-12-29T02:19:15.007Z,44.55
2022-12-29T02:22:20.196Z,36.78
2022-12-29T02:25:29.154Z,41.53
2022-12-29T02:28:37.493Z,39.90
2022-12-29T02:32:12.808Z,39.15
2022-12-29T02:35:33.908Z,40.42
2022-12-29T02:38:38.955Z,33.23
2022-12-29T02:41:49.914Z,41.40
2022-12-29T02:44:57.854Z,45.13
2022-12-29T02:48:02.695Z,35.20
2022-12-29T02:51:08.695Z,34.88
2022-12-29T02:54:29.394Z,34.17
2022-12-29T02:57:35.642Z,32.83
2022-12-29T03:00:40.590Z,34.20
2022-12-29T03:04:03.008Z,41.67
2022-12-29T03:07:21.311Z,35.90
2022-12-29T03:10:26.466Z,40.07
2022-12-29T03:13:46.890Z,41.60
2022-12-29T03:16:50.895Z,38.67
2022-12-29T03:19:53.818Z,33.83
2022-12-29T03:23:01.594Z,36.72
2022-12-29T03:26:09.389Z,39.65
2022-12-29T03:29:12.278Z,40.00
2022-12-29T03:32:15.765Z,29.43
2022-12-29T03:35:19.757Z,34.22
2022-12-29T03:38:25.306Z,34.72
2022-12-29T03:41:29.849Z,35.47
2022-12-29T03:44:37.437Z,34.72
2022-12-29T03:47:40.311Z,39.67
2022-12-29T03:50:42.690Z,40.25
2022-12-29T03:53:44.848Z,36.60
2022-12-29T03:56:46.910Z,41.35
2022-12-29T03:59:53.226Z,35.40
2022-12-29T04:02:56.135Z,39.77
2022-12-29T04:05:59.143Z,36.55
2022-12-29T04:09:02.377Z,34.85
2022-12-29T04:12:08.507Z,35.93
2022-12-29T04:15:11.103Z,38.83
2022-12-29T04:18:13.710Z,38.75
2022-12-29T04:21:16.044Z,40.03
2022-12-29T04:24:20.391Z,32.80
2022-12-29T04:27:25.296Z,37.88
2022-12-29T04:30:46.381Z,40.22
2022-12-29T04:34:01.115Z,33.30
2022-12-29T04:37:03.764Z,37.22
2022-12-29T04:40:06.213Z,34.15
2022-12-29T04:43:08.473Z,34.43
2022-12-29T04:46:17.715Z,35.53
2022-12-29T04:49:31.492Z,39.40
2022-12-29T04:52:56.511Z,30.13
2022-12-29T04:55:59.191Z,37.60
2022-12-29T04:59:01.255Z,32.50
2022-12-29T05:02:03.386Z,35.58
2022-12-29T05:05:06.716Z,32.63
2022-12-29T05:08:11.052Z,37.22
2022-12-29T05:11:13.106Z,48.58
2022-12-29T05:14:15.279Z,43.27
2022-12-29T05:17:18.072Z,39.35
2022-12-29T05:20:21.039Z,34.15
2022-12-29T05:23:23.165Z,34.20
2022-12-29T05:26:38.065Z,27.52
2022-12-29T05:29:45.549Z,33.55
2022-12-29T05:32:48.350Z,29.50
2022-12-29T05:35:50.476Z,33.93
2022-12-29T05:38:53.530Z,42.53
2022-12-29T05:41:56.056Z,30.88
2022-12-29T05:45:08.878Z,36.60
2022-12-29T05:48:31.694Z,39.83
2022-12-29T05:51:58.285Z,34.40
2022-12-29T05:55:00.353Z,28.98
2022-12-29T05:58:03.392Z,32.15
2022-12-29T06:01:05.531Z,28.85
2022-12-29T06:04:07.593Z,40.42
2022-12-29T06:07:09.795Z,38.13
2022-12-29T06:10:22.709Z,32.92
2022-12-29T06:13:36.592Z,44.40
2022-12-29T06:16:38.832Z,36.13
2022-12-29T06:19:45.174Z,36.88
2022-12-29T06:22:47.731Z,46.90
2022-12-29T06:25:49.975Z,46.00
2022-12-29T06:28:52.506Z,39.65
2022-12-29T06:31:57.274Z,37.13
2022-12-29T06:35:00.257Z,63.20
2022-12-29T06:38:02.431Z,36.30
2022-12-29T06:41:04.553Z,36.03
2022-12-29T06:44:38.530Z,39.17
2022-12-29T06:47:45.254Z,91.90
2022-12-29T06:50:47.220Z,59.63
2022-12-29T06:53:49.266Z,42.45
2022-12-29T06:56:51.291Z,36.55
2022-12-29T06:59:53.445Z,41.25
2022-12-29T07:02:56.140Z,36.15
2022-12-29T07:05:59.204Z,31.88
2022-12-29T07:09:01.327Z,39.93
2022-12-29T07:12:03.372Z,46.75
2022-12-29T07:15:05.696Z,32.92
2022-12-29T07:18:07.713Z,29.10
2022-12-29T07:21:09.774Z,30.70
2022-12-29T07:24:11.839Z,38.65
2022-12-29T07:27:14.239Z,37.20
2022-12-29T07:30:16.572Z,27.15
2022-12-29T07:33:19.474Z,29.65
2022-12-29T07:36:21.692Z,32.38
2022-12-29T07:39:23.712Z,29.73
2022-12-29T07:42:25.751Z,32.78
2022-12-29T07:45:28.246Z,29.35
2022-12-29T07:48:39.012Z,32.83
2022-12-29T07:51:41.057Z,36.67
2022-12-29T07:54:43.083Z,27.15
2022-12-29T07:57:45.290Z,26.45
2022-12-29T08:00:47.309Z,23.48
2022-12-29T08:03:53.972Z,26.95
2022-12-29T08:06:59.056Z,25.40
2022-12-29T08:10:01.118Z,31.30
2022-12-29T08:13:03.272Z,33.78
2022-12-29T08:16:05.510Z,30.25
2022-12-29T08:19:07.577Z,27.47
2022-12-29T08:22:09.688Z,28.65
2022-12-29T08:25:11.733Z,28.50
2022-12-29T08:28:13.836Z,24.10
2022-12-29T08:31:15.857Z,29.80
2022-12-29T08:34:17.982Z,30.73
2022-12-29T08:37:19.971Z,30.75
2022-12-29T08:40:21.990Z,26.00
2022-12-29T08:43:24.374Z,28.50
2022-12-29T08:46:26.434Z,30.10
2022-12-29T08:49:28.579Z,25.33
2022-12-29T08:52:30.627Z,26.23
2022-12-29T08:55:32.694Z,23.40
2022-12-29T08:58:34.799Z,25.95
2022-12-29T09:01:37.702Z,27.83
2022-12-29T09:04:39.886Z,24.17
2022-12-29T09:07:41.978Z,40.08
2022-12-29T09:10:44.407Z,37.23
2022-12-29T09:13:46.602Z,30.55
2022-12-29T09:17:07.135Z,32.85
2022-12-29T09:20:10.066Z,30.57
2022-12-29T09:23:12.082Z,33.05
2022-12-29T09:26:14.159Z,41.17
2022-12-29T09:29:16.880Z,34.97
2022-12-29T09:32:19.866Z,32.28
2022-12-29T09:35:22.356Z,32.90
2022-12-29T09:38:25.084Z,28.55
2022-12-29T09:41:50.392Z,36.97
2022-12-29T09:45:10.687Z,36.13
2022-12-29T09:48:15.441Z,32.00
2022-12-29T09:51:21.959Z,30.07
2022-12-29T09:54:42.552Z,42.10
2022-12-29T09:58:19.645Z,34.90
2022-12-29T10:01:33.652Z,30.38
2022-12-29T10:04:36.568Z,28.73
2022-12-29T10:08:01.156Z,36.78
2022-12-29T10:11:08.843Z,24.98
2022-12-29T10:14:16.601Z,27.50
2022-12-29T10:17:30.289Z,22.83
2022-12-29T10:20:51.013Z,24.90
2022-12-29T10:23:54.188Z,22.70
2022-12-29T10:26:57.111Z,24.33
2022-12-29T10:30:02.115Z,23.92
2022-12-29T10:33:06.880Z,27.00
2022-12-29T10:36:16.457Z,27.10
2022-12-29T10:39:18.455Z,21.30
2022-12-29T10:42:20.445Z,30.85
2022-12-29T10:45:24.127Z,26.07
2022-12-29T10:48:31.839Z,25.92
2022-12-29T10:51:37.900Z,33.30
2022-12-29T10:54:52.580Z,27.70
2022-12-29T10:57:55.670Z,28.95
2022-12-29T11:00:57.716Z,26.48
2022-12-29T11:04:03.631Z,26.92
2022-12-29T11:07:10.590Z,32.13
2022-12-29T11:10:36.492Z,27.88
2022-12-29T11:14:01.482Z,34.28
2022-12-29T11:17:04.878Z,27.03
2022-12-29T11:20:25.288Z,35.90
2022-12-29T11:23:27.429Z,29.55
2022-12-29T11:26:34.518Z,33.27
2022-12-29T11:29:41.601Z,31.00
2022-12-29T11:32:51.581Z,31.55
2022-12-29T11:35:57.920Z,35.95
2022-12-29T11:39:00.028Z,31.67
2022-12-29T11:42:03.738Z,38.22
2022-12-29T11:45:24.905Z,29.92
2022-12-29T11:48:29.187Z,50.97
2022-12-29T11:51:35.057Z,41.95
2022-12-29T11:54:38.732Z,42.10
2022-12-29T11:57:42.702Z,37.63
2022-12-29T12:00:45.447Z,30.75
2022-12-29T12:04:04.935Z,33.88
2022-12-29T12:07:10.091Z,32.67
2022-12-29T12:10:16.291Z,35.58
2022-12-29T12:13:33.845Z,49.30
2022-12-29T12:16:40.605Z,44.53
2022-12-29T12:20:03.658Z,37.87
2022-12-29T12:23:28.831Z,39.88
2022-12-29T12:26:36.371Z,48.47
2022-12-29T12:29:41.916Z,43.87
2022-12-29T12:33:03.321Z,48.92
2022-12-29T12:36:08.392Z,41.63
2022-12-29T12:39:20.249Z,54.00
2022-12-29T12:42:42.506Z,47.65
2022-12-29T12:45:57.324Z,42.05
2022-12-29T12:49:14.828Z,35.72
2022-12-29T12:52:39.111Z,32.20
2022-12-29T12:55:41.116Z,28.90
2022-12-29T12:58:47.870Z,38.85
2022-12-29T13:01:55.377Z,33.13
2022-12-29T13:04:57.488Z,49.17
2022-12-29T13:08:02.260Z,42.55
2022-12-29T13:11:19.367Z,38.08
2022-12-29T13:14:36.606Z,33.83
2022-12-29T13:17:58.891Z,36.65
2022-12-29T13:21:00.899Z,46.05
2022-12-29T13:24:14.803Z,45.17
2022-12-29T13:27:23.041Z,42.13
2022-12-29T13:30:30.022Z,37.70
2022-12-29T13:33:57.923Z,40.30
2022-12-29T13:37:01.195Z,35.25
2022-12-29T13:40:14.106Z,37.50
2022-12-29T13:43:16.958Z,44.97
2022-12-29T13:46:28.349Z,34.97
2022-12-29T13:49:30.633Z,41.33
2022-12-29T13:52:36.762Z,33.80
2022-12-29T13:55:38.850Z,35.50
2022-12-29T13:58:40.867Z,30.10
2022-12-29T14:02:05.179Z,34.10
2022-12-29T14:05:27.382Z,38.57
2022-12-29T14:08:29.367Z,32.97
2022-12-29T14:11:33.493Z,35.33
2022-12-29T14:14:38.257Z,30.65
2022-12-29T14:17:41.569Z,39.28
2022-12-29T14:20:57.926Z,36.92
2022-12-29T14:24:18.403Z,36.45
2022-12-29T14:27:20.472Z,40.30
2022-12-29T14:30:45.828Z,41.55
2022-12-29T14:34:06.733Z,37.58
2022-12-29T14:37:23.358Z,36.47
2022-12-29T14:40:27.451Z,39.72
2022-12-29T14:43:29.756Z,42.30
2022-12-29T14:46:50.654Z,39.30
2022-12-29T14:49:53.325Z,37.80
2022-12-29T14:53:03.165Z,41.65
2022-12-29T14:56:10.423Z,39.58
2022-12-29T14:59:12.441Z,43.60
2022-12-29T15:02:17.399Z,44.58
2022-12-29T15:05:33.687Z,37.80
2022-12-29T15:08:47.526Z,42.70
2022-12-29T15:11:52.324Z,45.17
2022-12-29T15:14:58.128Z,42.10
2022-12-29T15:18:20.143Z,42.40
2022-12-29T15:21:32.716Z,38.20
2022-12-29T15:24:39.433Z,46.22
2022-12-29T15:27:49.750Z,36.80
2022-12-29T15:30:53.310Z,39.57
2022-12-29T15:33:56.408Z,40.03
2022-12-29T15:36:58.478Z,48.67
2022-12-29T15:40:00.535Z,45.23
2022-12-29T15:43:14.693Z,46.10
2022-12-29T15:46:17.031Z,45.42
2022-12-29T15:49:19.479Z,43.60
2022-12-29T15:52:22.289Z,52.42
2022-12-29T15:55:34.982Z,48.65
2022-12-29T15:58:41.567Z,40.78
2022-12-29T16:01:43.782Z,45.13
2022-12-29T16:05:15.647Z,41.20
2022-12-29T16:08:22.588Z,32.15
2022-12-29T16:11:27.373Z,47.13
2022-12-29T16:14:40.617Z,34.03
2022-12-29T16:17:49.626Z,44.90
2022-12-29T16:20:52.008Z,43.78
2022-12-29T16:23:55.051Z,31.80
2022-12-29T16:26:57.091Z,49.53
2022-12-29T16:29:59.358Z,42.00
2022-12-29T16:33:02.863Z,29.53
2022-12-29T16:36:22.537Z,42.28
2022-12-29T16:39:30.413Z,44.05
2022-12-29T16:42:37.350Z,50.00
2022-12-29T16:45:48.410Z,46.17
2022-12-29T16:48:54.882Z,42.50
2022-12-29T16:51:57.031Z,41.30
2022-12-29T16:55:02.113Z,43.70
2022-12-29T16:58:04.301Z,44.05
2022-12-29T17:01:07.100Z,43.55
2022-12-29T17:04:11.283Z,41.63
2022-12-29T17:07:20.921Z,35.78
2022-12-29T17:10:42.926Z,33.92
2022-12-29T17:13:44.943Z,45.53
2022-12-29T17:16:47.757Z,43.17
2022-12-29T17:19:51.533Z,39.67
2022-12-29T17:22:56.772Z,51.10
2022-12-29T17:25:58.926Z,43.95
2022-12-29T17:29:00.963Z,44.25
2022-12-29T17:32:04.151Z,41.47
2022-12-29T17:35:06.275Z,49.77
2022-12-29T17:38:20.250Z,41.97
2022-12-29T17:41:22.284Z,44.70
2022-12-29T17:44:25.615Z,51.97
2022-12-29T17:47:27.648Z,47.30
2022-12-29T17:50:30.819Z,41.30
2022-12-29T17:53:32.934Z,43.78
2022-12-29T17:56:34.932Z,46.08
2022-12-29T17:59:36.946Z,48.88
2022-12-29T18:02:39.062Z,53.83
2022-12-29T18:05:41.265Z,48.00
2022-12-29T18:08:44.931Z,53.90
2022-12-29T18:11:47.035Z,49.28
2022-12-29T18:14:49.031Z,42.97
2022-12-29T18:17:54.832Z,58.55
2022-12-29T18:20:59.554Z,41.33
2022-12-29T18:24:01.594Z,47.47
2022-12-29T18:27:12.087Z,44.05
2022-12-29T18:30:14.319Z,45.70
2022-12-29T18:33:21.839Z,44.30
2022-12-29T18:36:25.659Z,42.53
2022-12-29T18:39:29.906Z,47.58
2022-12-29T18:42:32.101Z,55.05
2022-12-29T18:45:34.364Z,54.30
2022-12-29T18:48:36.391Z,55.00
2022-12-29T18:51:38.512Z,58.38
2022-12-29T18:54:40.603Z,60.88
2022-12-29T18:57:42.683Z,49.08
2022-12-29T19:00:45.298Z,61.33
2022-12-29T19:03:47.396Z,54.13
2022-12-29T19:06:49.522Z,61.53
2022-12-29T19:09:51.973Z,57.63
2022-12-29T19:12:54.563Z,68.05
2022-12-29T19:15:57.516Z,62.03
2022-12-29T19:19:09.267Z,71.15
2022-12-29T19:22:12.355Z,61.70
2022-12-29T19:25:14.797Z,65.40
2022-12-29T19:28:18.523Z,64.75
2022-12-29T19:31:20.574Z,67.68
2022-12-29T19:34:22.665Z,58.47
2022-12-29T19:37:24.689Z,57.13
2022-12-29T19:40:27.023Z,68.57
2022-12-29T19:43:29.181Z,39.70
2022-12-29T19:46:31.287Z,40.30
2022-12-29T19:49:34.446Z,72.13
2022-12-29T19:52:36.757Z,75.85
2022-12-29T19:55:42.360Z,69.03
2022-12-29T19:58:47.539Z,71.15
2022-12-29T20:01:50.103Z,65.03
2022-12-29T20:04:52.294Z,69.63
2022-12-29T20:07:54.351Z,59.93
2022-12-29T20:10:57.228Z,53.60
2022-12-29T20:13:59.250Z,59.80
2022-12-29T20:17:11.180Z,65.83
2022-12-29T20:20:14.186Z,64.30
2022-12-29T20:23:16.167Z,60.95
2022-12-29T20:26:23.511Z,68.75
2022-12-29T20:29:25.633Z,61.80
2022-12-29T20:32:27.709Z,72.05
2022-12-29T20:35:29.706Z,71.10
2022-12-29T20:38:31.808Z,63.87
2022-12-29T20:41:33.950Z,74.10
2022-12-29T20:44:36.441Z,75.70
2022-12-29T20:47:38.562Z,59.17
2022-12-29T20:50:40.564Z,72.13
2022-12-29T20:53:42.610Z,71.82
2022-12-29T20:56:45.941Z,82.38
2022-12-29T20:59:47.918Z,76.07
2022-12-29T21:02:50.201Z,90.93
2022-12-29T21:05:52.613Z,86.82
2022-12-29T21:08:55.310Z,84.33
2022-12-29T21:11:57.305Z,86.55
2022-12-29T21:14:59.324Z,91.55
2022-12-29T21:18:01.371Z,75.63
2022-12-29T21:21:04.794Z,84.25
2022-12-29T21:24:07.357Z,87.60
2022-12-29T21:27:09.447Z,92.15
2022-12-29T21:30:11.773Z,92.28
2022-12-29T21:33:13.929Z,98.13
2022-12-29T21:36:15.981Z,99.00
2022-12-29T21:39:18.191Z,86.03
2022-12-29T21:42:20.159Z,106.25
2022-12-29T21:45:25.003Z,75.70
2022-12-29T21:48:28.903Z,100.80
2022-12-29T21:51:49.527Z,56.13
2022-12-29T21:55:00.753Z,107.85
2022-12-29T21:58:21.155Z,97.03
2022-12-29T22:01:42.722Z,87.05
2022-12-29T22:05:03.204Z,99.28
2022-12-29T22:08:23.530Z,97.03
2022-12-29T22:11:43.925Z,106.40
2022-12-29T22:14:45.942Z,106.32
2022-12-29T22:17:51.898Z,93.22
2022-12-29T22:20:53.948Z,96.47
2022-12-29T22:23:55.980Z,106.90
2022-12-29T22:26:58.011Z,89.75
2022-12-29T22:30:00.035Z,73.63
2022-12-29T22:33:02.222Z,122.97
2022-12-29T22:36:04.446Z,116.60
2022-12-29T22:39:06.485Z,117.53
2022-12-29T22:42:08.488Z,113.33
2022-12-29T22:45:10.913Z,93.47
2022-12-29T22:48:12.906Z,104.40
2022-12-29T22:51:14.995Z,101.50
2022-12-29T22:54:18.291Z,106.45
2022-12-29T22:57:20.328Z,143.80
2022-12-29T23:00:22.599Z,120.13
2022-12-29T23:03:24.753Z,123.75
2022-12-29T23:06:26.816Z,114.82
2022-12-29T23:09:28.850Z,109.03
2022-12-29T23:12:31.599Z,122.90
2022-12-29T23:15:33.637Z,103.95
2022-12-29T23:18:35.619Z,121.05
2022-12-29T23:21:37.686Z,88.20
2022-12-29T23:24:39.687Z,111.30
2022-12-29T23:27:41.693Z,102.30
2022-12-29T23:30:43.732Z,98.43
2022-12-29T23:33:45.869Z,111.07
2022-12-29T23:36:47.978Z,119.25
2022-12-29T23:39:50.003Z,117.55
2022-12-29T23:42:52.053Z,90.73
2022-12-29T23:45:54.129Z,98.82
2022-12-29T23:48:56.435Z,93.53
2022-12-29T23:51:58.520Z,116.77
2022-12-29T23:55:00.710Z,116.38
2022-12-29T23:58:02.795Z,102.75
